Time;durP1;ratioP1;P1;durP2;ratioP2;P2;SDS_P1;SDS_P2;PMS_P1;PMS_P2;Temp;Humidity;BMP_temperature;BMP_pressure;BME280_temperature;BME280_humidity;BME280_pressure;Samples;Min_cycle;Max_cycle;Signal;HPM_P1;HPM_P2
2021/10/21 00:01:12;;;;;;;8.40;4.30;;;;;;;-143.37;100.00;65745.06;5072400;28;20205;-71
2021/10/21 00:03:39;;;;;;;5.90;4.40;;;;;;;-143.37;100.00;65745.06;5072825;28;20673;-71
2021/10/21 00:06:06;;;;;;;6.20;4.27;;;;;;;-143.37;100.00;65745.06;5074041;28;20208;-71
2021/10/21 00:08:33;;;;;;;7.87;4.57;;;;;;;-143.37;100.00;65745.06;5076697;28;20205;-71
2021/10/21 00:10:59;;;;;;;7.17;4.53;;;;;;;-143.37;100.00;65745.06;5073462;28;20208;-71
2021/10/21 00:13:26;;;;;;;7.70;4.27;;;;;;;-143.37;100.00;65745.06;5072223;28;20209;-71
2021/10/21 00:15:53;;;;;;;6.67;4.30;;;;;;;-143.37;100.00;65745.06;5075375;28;20291;-71
2021/10/21 00:18:19;;;;;;;6.97;3.80;;;;;;;-143.37;100.00;65745.06;5076153;28;20296;-71
2021/10/21 00:20:46;;;;;;;5.97;4.33;;;;;;;-143.37;100.00;65745.06;5072620;28;20292;-72
2021/10/21 00:23:12;;;;;;;8.07;4.43;;;;;;;-143.37;100.00;65745.06;5071488;28;20275;-72
2021/10/21 00:25:39;;;;;;;6.60;4.37;;;;;;;-143.37;100.00;65745.06;5083570;28;20712;-71
2021/10/21 00:28:05;;;;;;;6.60;4.03;;;;;;;-143.37;100.00;65745.06;5091603;28;20207;-71
2021/10/21 00:30:32;;;;;;;6.70;4.63;;;;;;;-143.37;100.00;65745.06;5092036;28;20224;-71
2021/10/21 00:32:58;;;;;;;6.20;4.03;;;;;;;-143.37;100.00;65745.06;5092373;28;20270;-71
2021/10/21 00:35:25;;;;;;;7.20;4.40;;;;;;;-143.37;100.00;65745.06;5092758;28;20636;-71
2021/10/21 00:37:54;;;;;;;10.13;4.57;;;;;;;-143.37;100.00;65745.06;5091463;28;20213;-71
2021/10/21 00:40:22;;;;;;;5.70;4.20;;;;;;;-143.37;100.00;65745.06;5091823;28;20651;-71
2021/10/21 00:42:49;;;;;;;7.20;3.97;;;;;;;-143.37;100.00;65745.06;5092540;28;20347;-71
2021/10/21 00:45:16;;;;;;;8.50;4.40;;;;;;;-143.37;100.00;65745.06;5092527;28;20299;-70
2021/10/21 00:47:43;;;;;;;7.40;4.63;;;;;;;-143.37;100.00;65745.06;5074505;28;20255;-71
2021/10/21 00:50:11;;;;;;;7.73;4.57;;;;;;;-143.37;100.00;65745.06;5070215;28;20225;-71
2021/10/21 00:52:38;;;;;;;7.20;3.93;;;;;;;-143.37;100.00;65745.06;5072267;28;20260;-71
2021/10/21 00:55:06;;;;;;;5.60;3.70;;;;;;;-143.37;100.00;65745.06;5072321;28;20209;-71
2021/10/21 00:57:33;;;;;;;6.20;4.30;;;;;;;-143.37;100.00;65745.06;5072262;28;20252;-71
2021/10/21 00:59:59;;;;;;;6.63;3.47;;;;;;;-143.37;100.00;65745.06;5072517;28;20205;-72
2021/10/21 01:34:42;;;;;;;7.17;4.43;;;;;;;-143.37;100.00;65745.06;5089200;28;20331;-72
2021/10/21 01:37:09;;;;;;;7.87;4.90;;;;;;;-143.37;100.00;65745.06;5089234;28;20227;-72
2021/10/21 01:39:35;;;;;;;10.07;4.30;;;;;;;-143.37;100.00;65745.06;5089022;28;20323;-72
2021/10/21 01:42:02;;;;;;;6.73;4.30;;;;;;;-143.37;100.00;65745.06;5068613;28;20308;-72
2021/10/21 01:44:28;;;;;;;6.60;4.03;;;;;;;-143.37;100.00;65745.06;5071552;28;20244;-71
2021/10/21 01:46:55;;;;;;;5.83;4.20;;;;;;;-143.37;100.00;65745.06;5084574;28;20639;-71
2021/10/21 01:49:22;;;;;;;5.47;3.87;;;;;;;-143.37;100.00;65745.06;5089169;28;20295;-71
2021/10/21 01:51:48;;;;;;;5.93;4.00;;;;;;;-143.37;100.00;65745.06;5087765;28;20216;-71
2021/10/21 01:54:15;;;;;;;5.97;4.40;;;;;;;-143.37;100.00;65745.06;5088753;28;20281;-71
2021/10/21 01:56:45;;;;;;;7.87;4.57;;;;;;;-143.37;100.00;65745.06;5087674;28;20282;-71
2021/10/21 01:59:12;;;;;;;6.73;4.43;;;;;;;-143.37;100.00;65745.06;5088798;28;20673;-71
2021/10/21 02:01:38;;;;;;;5.77;4.43;;;;;;;-143.37;100.00;65745.06;5088204;28;20256;-70
2021/10/21 02:04:05;;;;;;;6.50;4.07;;;;;;;-143.37;100.00;65745.06;5089057;28;20235;-71
2021/10/21 02:06:31;;;;;;;5.73;3.90;;;;;;;-143.37;100.00;65745.06;5088693;28;20240;-71
2021/10/21 02:08:58;;;;;;;7.53;4.30;;;;;;;-143.37;100.00;65745.06;5087693;28;20254;-71
2021/10/21 02:11:24;;;;;;;6.03;4.17;;;;;;;-143.37;100.00;65745.06;5087831;28;20319;-71
2021/10/21 02:13:51;;;;;;;7.00;4.27;;;;;;;-143.37;100.00;65745.06;5088467;28;20224;-71
2021/10/21 02:16:18;;;;;;;5.47;4.03;;;;;;;-143.37;100.00;65745.06;5088502;28;20205;-71
2021/10/21 02:18:44;;;;;;;7.10;4.20;;;;;;;-143.37;100.00;65745.06;5088307;28;20283;-71
2021/10/21 02:21:11;;;;;;;7.10;4.40;;;;;;;-143.37;100.00;65745.06;5087378;28;20227;-71
2021/10/21 02:23:37;;;;;;;7.67;4.83;;;;;;;-143.37;100.00;65745.06;5088460;28;20288;-71
2021/10/21 02:26:04;;;;;;;6.93;4.23;;;;;;;-143.37;100.00;65745.06;5087067;28;20732;-71
2021/10/21 02:28:30;;;;;;;8.13;4.17;;;;;;;-143.37;100.00;65745.06;5087249;28;20296;-71
2021/10/21 02:30:57;;;;;;;5.80;4.07;;;;;;;-143.37;100.00;65745.06;5086301;28;20203;-71
2021/10/21 02:33:24;;;;;;;6.30;4.57;;;;;;;-143.37;100.00;65745.06;5097635;28;20281;-71
2021/10/21 02:35:50;;;;;;;7.67;4.47;;;;;;;-143.37;100.00;65745.06;5108144;28;20208;-71
2021/10/21 02:38:17;;;;;;;7.23;4.70;;;;;;;-143.37;100.00;65745.06;5108479;28;20227;-71
2021/10/21 02:40:43;;;;;;;6.43;4.27;;;;;;;-143.37;100.00;65745.06;5107914;28;20208;-71
2021/10/21 02:43:10;;;;;;;5.57;4.27;;;;;;;-143.37;100.00;65745.06;5110368;28;20355;-71
2021/10/21 02:45:37;;;;;;;6.50;4.33;;;;;;;-143.37;100.00;65745.06;5100678;28;20232;-70
2021/10/21 02:48:04;;;;;;;6.80;4.03;;;;;;;-143.37;100.00;65745.06;5090508;28;20209;-71
2021/10/21 02:50:31;;;;;;;6.13;3.83;;;;;;;-143.37;100.00;65745.06;5091518;28;20217;-70
2021/10/21 02:52:57;;;;;;;6.27;4.03;;;;;;;-143.37;100.00;65745.06;5075444;28;20647;-71
2021/10/21 02:55:24;;;;;;;7.10;3.93;;;;;;;-143.37;100.00;65745.06;5074328;28;20899;-71
2021/10/21 02:57:50;;;;;;;5.30;3.60;;;;;;;-143.37;100.00;65745.06;5089904;28;20292;-71
2021/10/21 03:00:18;;;;;;;6.23;4.07;;;;;;;-143.37;100.00;65745.06;5073472;28;20292;-71
2021/10/21 03:02:44;;;;;;;9.27;4.20;;;;;;;-143.37;100.00;65745.06;5074114;28;20718;-71
2021/10/21 03:05:11;;;;;;;5.33;3.60;;;;;;;-143.37;100.00;65745.06;5074233;28;20232;-71
2021/10/21 03:07:37;;;;;;;9.47;3.97;;;;;;;-143.37;100.00;65745.06;5074160;28;20244;-71
2021/10/21 03:10:04;;;;;;;6.73;4.40;;;;;;;-143.37;100.00;65745.06;5073369;28;20240;-71
2021/10/21 03:12:31;;;;;;;6.10;4.10;;;;;;;-143.37;100.00;65745.06;5073764;28;20682;-71
2021/10/21 03:15:18;;;;;;;4.97;3.60;;;;;;;-143.37;100.00;65745.06;5073556;28;20577;-71
2021/10/21 03:17:45;;;;;;;8.90;5.00;;;;;;;-143.37;100.00;65745.06;5072813;28;20346;-70
2021/10/21 03:20:12;;;;;;;11.97;4.77;;;;;;;-143.37;100.00;65745.06;5072051;28;20233;-70
2021/10/21 03:22:40;;;;;;;6.60;4.30;;;;;;;-143.37;100.00;65745.06;5072673;28;20229;-70
2021/10/21 03:25:08;;;;;;;7.93;4.40;;;;;;;-143.37;100.00;65745.06;5080035;28;20672;-70
2021/10/21 03:27:36;;;;;;;6.00;4.07;;;;;;;-143.37;100.00;65745.06;5094084;28;20205;-71
2021/10/21 03:30:03;;;;;;;7.03;4.57;;;;;;;-143.37;100.00;65745.06;5092002;28;20201;-71
2021/10/21 03:32:30;;;;;;;6.60;4.30;;;;;;;-143.37;100.00;65745.06;5093813;28;20256;-71
2021/10/21 03:34:57;;;;;;;5.80;4.20;;;;;;;-143.37;100.00;65745.06;5093918;28;20221;-70
2021/10/21 03:37:24;;;;;;;7.17;4.30;;;;;;;-143.37;100.00;65745.06;5092644;28;20239;-70
2021/10/21 03:39:50;;;;;;;8.83;4.90;;;;;;;-143.37;100.00;65745.06;5091667;28;20226;-70
2021/10/21 03:42:22;;;;;;;7.70;4.13;;;;;;;-143.37;100.00;65745.06;5093497;28;20224;-70
2021/10/21 03:44:49;;;;;;;8.30;4.90;;;;;;;-143.37;100.00;65745.06;5092487;28;20346;-70
2021/10/21 03:47:16;;;;;;;6.13;4.10;;;;;;;-143.37;100.00;65745.06;5079515;28;20236;-71
2021/10/21 03:49:43;;;;;;;5.87;3.93;;;;;;;-143.37;100.00;65745.06;5072796;28;20231;-70
2021/10/21 03:52:09;;;;;;;7.77;4.17;;;;;;;-143.37;100.00;65745.06;5071959;28;20264;-70
2021/10/21 03:54:36;;;;;;;6.83;4.47;;;;;;;-143.37;100.00;65745.06;5073065;28;20256;-70
2021/10/21 03:57:02;;;;;;;7.00;4.57;;;;;;;-143.37;100.00;65745.06;5072078;28;20227;-70
2021/10/21 03:59:32;;;;;;;6.70;4.53;;;;;;;-143.37;100.00;65745.06;5072505;28;20717;-70
2021/10/21 04:01:58;;;;;;;9.87;4.70;;;;;;;-143.37;100.00;65745.06;5073154;28;20252;-70
2021/10/21 04:04:25;;;;;;;8.40;4.67;;;;;;;-143.37;100.00;65745.06;5072917;28;20697;-70
2021/10/21 04:06:53;;;;;;;7.23;4.70;;;;;;;-143.37;100.00;65745.06;5071627;28;20282;-70
2021/10/21 04:09:19;;;;;;;8.57;4.17;;;;;;;-143.37;100.00;65745.06;5072762;28;20293;-70
2021/10/21 04:11:45;;;;;;;7.90;4.97;;;;;;;-143.37;100.00;65745.06;5087117;28;20229;-70
2021/10/21 04:14:12;;;;;;;8.87;4.90;;;;;;;-143.37;100.00;65745.06;5072796;28;20264;-70
2021/10/21 04:16:39;;;;;;;8.23;4.70;;;;;;;-143.37;100.00;65745.06;5072499;28;20600;-71
2021/10/21 04:19:05;;;;;;;7.17;4.13;;;;;;;-143.37;100.00;65745.06;5072753;28;20304;-70
2021/10/21 04:21:32;;;;;;;8.83;4.87;;;;;;;-143.37;100.00;65745.06;5072397;28;20225;-71
2021/10/21 04:23:58;;;;;;;9.63;5.37;;;;;;;-143.37;100.00;65745.06;5072072;28;20737;-71
2021/10/21 04:26:24;;;;;;;6.73;4.93;;;;;;;-143.37;100.00;65745.06;5099263;28;20328;-70
2021/10/21 04:28:51;;;;;;;9.03;4.83;;;;;;;-143.37;100.00;65745.06;5097137;28;20295;-70
2021/10/21 04:31:17;;;;;;;7.57;4.77;;;;;;;-143.37;100.00;65745.06;5091319;28;20260;-70
2021/10/21 04:33:44;;;;;;;9.83;5.47;;;;;;;-143.37;100.00;65745.06;5092666;28;20228;-70
2021/10/21 04:36:11;;;;;;;11.43;4.50;;;;;;;-143.37;100.00;65745.06;5092694;28;20216;-70
2021/10/21 04:38:38;;;;;;;7.23;5.07;;;;;;;-143.37;100.00;65745.06;5092351;28;20208;-70
2021/10/21 04:41:07;;;;;;;7.10;4.60;;;;;;;-143.37;100.00;65745.06;5090337;28;20680;-69
2021/10/21 04:43:33;;;;;;;6.27;4.53;;;;;;;-143.37;100.00;65745.06;5092502;28;20255;-70
2021/10/21 04:46:00;;;;;;;9.40;5.03;;;;;;;-143.37;100.00;65745.06;5088684;28;20571;-71
2021/10/21 04:48:26;;;;;;;6.93;4.10;;;;;;;-143.37;100.00;65745.06;5087522;28;20220;-71
2021/10/21 04:50:53;;;;;;;10.67;4.53;;;;;;;-143.37;100.00;65745.06;5071248;28;20228;-70
2021/10/21 04:53:20;;;;;;;7.00;3.43;;;;;;;-143.37;100.00;65745.06;5087240;28;20272;-71
2021/10/21 04:55:46;;;;;;;6.33;3.87;;;;;;;-143.37;100.00;65745.06;5071127;28;20243;-71
2021/10/21 04:58:13;;;;;;;4.57;3.40;;;;;;;-143.37;100.00;65745.06;5074177;28;20300;-71
2021/10/21 05:00:39;;;;;;;6.13;3.70;;;;;;;-143.37;100.00;65745.06;5074456;28;20251;-71
2021/10/21 05:03:12;;;;;;;4.83;3.73;;;;;;;-143.37;100.00;65745.06;5073800;28;20235;-71
2021/10/21 05:05:41;;;;;;;5.87;3.60;;;;;;;-143.37;100.00;65745.06;5075305;28;20211;-71
2021/10/21 05:08:08;;;;;;;4.17;2.77;;;;;;;-143.37;100.00;65745.06;5090124;28;20590;-71
2021/10/21 05:10:34;;;;;;;4.83;3.07;;;;;;;-143.37;100.00;65745.06;5075343;28;20662;-71
2021/10/21 05:13:01;;;;;;;4.10;3.23;;;;;;;-143.37;100.00;65745.06;5075206;28;20252;-71
2021/10/21 05:15:28;;;;;;;4.23;2.77;;;;;;;-143.37;100.00;65745.06;5076513;28;20256;-71
2021/10/21 05:17:55;;;;;;;6.87;3.50;;;;;;;-143.37;100.00;65745.06;5076183;28;20762;-71
2021/10/21 05:20:22;;;;;;;4.80;2.80;;;;;;;-143.37;100.00;65745.06;5071314;28;20209;-72
2021/10/21 05:22:48;;;;;;;4.20;3.13;;;;;;;-143.37;100.00;65745.06;5087805;28;20316;-71
2021/10/21 05:25:15;;;;;;;3.90;2.50;;;;;;;-143.37;100.00;65745.06;5081036;28;20220;-71
2021/10/21 05:27:41;;;;;;;3.70;2.50;;;;;;;-143.37;100.00;65745.06;5092940;28;20628;-71
2021/10/21 05:30:09;;;;;;;3.73;2.70;;;;;;;-143.37;100.00;65745.06;5091047;28;20587;-71
2021/10/21 05:32:35;;;;;;;4.70;2.70;;;;;;;-143.37;100.00;65745.06;5091391;28;20272;-71
2021/10/21 05:35:02;;;;;;;3.50;2.53;;;;;;;-143.37;100.00;65745.06;5091082;28;20336;-71
2021/10/21 05:37:28;;;;;;;4.27;2.67;;;;;;;-143.37;100.00;65745.06;5091460;28;20209;-71
2021/10/21 05:39:55;;;;;;;3.70;2.00;;;;;;;-143.37;100.00;65745.06;5089817;28;20266;-72
2021/10/21 05:42:21;;;;;;;2.67;1.87;;;;;;;-143.37;100.00;65745.06;5090368;28;20311;-71
2021/10/21 05:44:49;;;;;;;2.37;1.83;;;;;;;-143.37;100.00;65745.06;5082520;28;20211;-71
2021/10/21 05:47:17;;;;;;;7.10;1.90;;;;;;;-143.37;100.00;65745.06;5082235;28;20209;-71
2021/10/21 05:49:45;;;;;;;4.20;1.80;;;;;;;-143.37;100.00;65745.06;5079168;28;20713;-71
2021/10/21 05:52:12;;;;;;;2.10;1.20;;;;;;;-143.37;100.00;65745.06;5088834;28;20248;-71
2021/10/21 05:54:38;;;;;;;2.17;1.20;;;;;;;-143.37;100.00;65745.06;5076454;28;20221;-70
2021/10/21 05:57:05;;;;;;;3.80;1.17;;;;;;;-143.37;100.00;65745.06;5084682;28;20300;-70
2021/10/21 05:59:31;;;;;;;1.57;1.00;;;;;;;-143.37;100.00;65745.06;5074220;28;20311;-70
2021/10/21 06:01:58;;;;;;;4.13;1.10;;;;;;;-143.37;100.00;65745.06;5087591;28;20311;-70
2021/10/21 06:04:24;;;;;;;2.50;1.20;;;;;;;-143.37;100.00;65745.06;5088057;28;20227;-70
2021/10/21 06:06:51;;;;;;;1.37;1.20;;;;;;;-143.37;100.00;65745.06;5080071;28;20693;-70
2021/10/21 06:09:20;;;;;;;2.27;1.47;;;;;;;-143.37;100.00;65745.06;5088057;28;20668;-71
2021/10/21 06:11:47;;;;;;;3.37;1.77;;;;;;;-143.37;100.00;65745.06;5087522;28;20344;-71
2021/10/21 06:14:14;;;;;;;3.57;1.90;;;;;;;-143.37;100.00;65745.06;5086741;28;20701;-70
2021/10/21 06:16:42;;;;;;;3.03;2.23;;;;;;;-143.37;100.00;65745.06;5088310;28;20257;-70
2021/10/21 06:19:09;;;;;;;4.37;2.40;;;;;;;-143.37;100.00;65745.06;5088763;28;20235;-71
2021/10/21 06:21:36;;;;;;;3.80;2.90;;;;;;;-143.37;100.00;65745.06;5093138;28;20260;-71
2021/10/21 06:24:03;;;;;;;4.23;2.87;;;;;;;-143.37;100.00;65745.06;5091233;28;20272;-70
2021/10/21 06:26:31;;;;;;;3.67;2.50;;;;;;;-143.37;100.00;65745.06;5091747;28;20288;-71
2021/10/21 06:28:57;;;;;;;4.03;2.73;;;;;;;-143.37;100.00;65745.06;5093037;28;20240;-71
2021/10/21 06:31:24;;;;;;;4.13;2.40;;;;;;;-143.37;100.00;65745.06;5091651;28;20327;-71
2021/10/21 06:33:50;;;;;;;4.03;2.70;;;;;;;-143.37;100.00;65745.06;5092827;28;20216;-70
2021/10/21 06:36:17;;;;;;;5.80;2.80;;;;;;;-143.37;100.00;65745.06;5091431;28;20209;-70
2021/10/21 06:38:44;;;;;;;4.70;2.87;;;;;;;-143.37;100.00;65745.06;5090438;28;20208;-70
2021/10/21 06:41:11;;;;;;;6.93;2.60;;;;;;;-143.37;100.00;65745.06;5090357;28;20628;-71
2021/10/21 06:43:38;;;;;;;4.50;2.90;;;;;;;-143.37;100.00;65745.06;5091003;28;20669;-70
2021/10/21 06:46:06;;;;;;;11.87;2.70;;;;;;;-143.37;100.00;65745.06;5089273;28;20291;-70
2021/10/21 06:48:33;;;;;;;4.37;2.67;;;;;;;-143.37;100.00;65745.06;5091756;28;20200;-70
2021/10/21 06:51:00;;;;;;;3.43;2.40;;;;;;;-143.37;100.00;65745.06;5090133;28;20287;-70
2021/10/21 06:53:26;;;;;;;5.17;2.70;;;;;;;-143.37;100.00;65745.06;5091526;28;20244;-71
2021/10/21 06:55:53;;;;;;;6.50;3.07;;;;;;;-143.37;100.00;65745.06;5090432;28;20228;-70
2021/10/21 06:58:20;;;;;;;4.03;2.50;;;;;;;-143.37;100.00;65745.06;5090945;28;20207;-71
2021/10/21 07:00:48;;;;;;;4.73;2.87;;;;;;;-143.37;100.00;65745.06;5091311;28;20205;-71
2021/10/21 07:03:15;;;;;;;3.73;2.60;;;;;;;-143.37;100.00;65745.06;5090904;28;20236;-70
2021/10/21 07:05:43;;;;;;;5.37;2.70;;;;;;;-143.37;100.00;65745.06;5086085;28;20716;-71
2021/10/21 07:08:11;;;;;;;6.03;2.23;;;;;;;-143.37;100.00;65745.06;5090933;28;20290;-71
2021/10/21 07:10:39;;;;;;;3.27;1.40;;;;;;;-143.37;100.00;65745.06;5092977;28;20208;-71
2021/10/21 07:13:06;;;;;;;3.10;1.50;;;;;;;-143.37;100.00;65745.06;5092043;28;20255;-71
2021/10/21 07:15:51;;;;;;;1.60;1.13;;;;;;;-143.37;100.00;65745.06;5089302;28;20228;-71
2021/10/21 07:18:17;;;;;;;3.43;1.23;;;;;;;-143.37;100.00;65745.06;5093435;28;20217;-71
2021/10/21 07:20:44;;;;;;;2.40;1.10;;;;;;;-143.37;100.00;65745.06;5090195;28;20644;-71
2021/10/21 07:23:10;;;;;;;1.13;0.90;;;;;;;-143.37;100.00;65745.06;5071869;28;20221;-71
2021/10/21 07:25:37;;;;;;;1.07;0.90;;;;;;;-143.37;100.00;65745.06;5089438;28;20685;-71
2021/10/21 07:28:03;;;;;;;1.85;0.50;;;;;;;-143.37;100.00;65745.06;5087432;28;20240;-71
2021/10/21 07:30:30;;;;;;;3.63;0.73;;;;;;;-143.37;100.00;65745.06;5089485;28;20735;-71
2021/10/21 07:33:00;;;;;;;4.40;0.45;;;;;;;-143.37;100.00;65745.06;5089543;28;20715;-71
2021/10/21 07:35:29;;;;;;;4.07;0.70;;;;;;;-143.37;100.00;65745.06;5090685;28;20307;-71
2021/10/21 07:37:56;;;;;;;3.63;0.55;;;;;;;-143.37;100.00;65745.06;5089400;28;20243;-71
2021/10/21 07:40:22;;;;;;;1.48;0.60;;;;;;;-143.37;100.00;65745.06;5089940;28;20301;-71
2021/10/21 07:42:49;;;;;;;3.30;0.52;;;;;;;-143.37;100.00;65745.06;5090258;28;20315;-71
2021/10/21 07:45:15;;;;;;;0.90;0.40;;;;;;;-143.37;100.00;65745.06;5087902;28;20208;-70
2021/10/21 07:47:42;;;;;;;0.40;0.38;;;;;;;-143.37;100.00;65745.06;5090447;28;20630;-70
2021/10/21 07:50:09;;;;;;;0.93;0.38;;;;;;;-143.37;100.00;65745.06;5088111;28;20228;-70
2021/10/21 07:52:38;;;;;;;2.70;0.50;;;;;;;-143.37;100.00;65745.06;5090455;28;20321;-70
2021/10/21 07:55:06;;;;;;;2.17;0.30;;;;;;;-143.37;100.00;65745.06;5090318;28;20657;-70
2021/10/21 07:57:34;;;;;;;2.67;0.60;;;;;;;-143.37;100.00;65745.06;5095274;28;20204;-70
2021/10/21 08:00:01;;;;;;;0.90;0.30;;;;;;;-143.37;100.00;65745.06;5096990;28;20283;-70
2021/10/21 08:02:28;;;;;;;1.75;0.68;;;;;;;-143.37;100.00;65745.06;5089756;28;20223;-70
2021/10/21 08:04:55;;;;;;;4.03;0.70;;;;;;;-143.37;100.00;65745.06;5087790;28;20232;-70
2021/10/21 08:07:21;;;;;;;1.80;0.50;;;;;;;-143.37;100.00;65745.06;5081189;28;20320;-70
2021/10/21 08:09:48;;;;;;;1.67;0.63;;;;;;;-143.37;100.00;65745.06;5089659;28;20243;-71
2021/10/21 08:12:14;;;;;;;2.85;0.40;;;;;;;-143.37;100.00;65745.06;5090519;28;21230;-69
2021/10/21 08:14:41;;;;;;;0.88;0.40;;;;;;;-143.37;100.00;65745.06;5088731;28;20307;-69
2021/10/21 08:17:07;;;;;;;1.65;0.60;;;;;;;-143.37;100.00;65745.06;5088181;28;20251;-70
2021/10/21 08:19:34;;;;;;;1.00;0.40;;;;;;;-143.37;100.00;65745.06;5089340;28;20291;-70
2021/10/21 08:22:02;;;;;;;1.50;0.57;;;;;;;-143.37;100.00;65745.06;5090280;28;20240;-70
2021/10/21 08:24:28;;;;;;;1.30;0.50;;;;;;;-143.37;100.00;65745.06;5091841;28;20246;-70
2021/10/21 08:26:55;;;;;;;3.42;0.40;;;;;;;-143.37;100.00;65745.06;5091045;28;20299;-69
2021/10/21 08:29:23;;;;;;;1.98;0.50;;;;;;;-143.37;100.00;65745.06;5092015;28;20300;-70
2021/10/21 08:31:53;;;;;;;2.58;0.65;;;;;;;-143.37;100.00;65745.06;5092102;28;20657;-69
2021/10/21 08:34:21;;;;;;;1.30;0.50;;;;;;;-143.37;100.00;65745.06;5091424;28;20942;-70
2021/10/21 08:36:47;;;;;;;1.98;0.82;;;;;;;-143.37;100.00;65745.06;5091204;28;20670;-70
2021/10/21 08:39:14;;;;;;;3.17;0.73;;;;;;;-143.37;100.00;65745.06;5092495;28;20299;-70
2021/10/21 08:41:42;;;;;;;2.42;0.68;;;;;;;-143.37;100.00;65745.06;5090592;28;20259;-70
2021/10/21 08:44:09;;;;;;;2.80;0.80;;;;;;;-143.37;100.00;65745.06;5090620;28;20208;-70
2021/10/21 08:46:37;;;;;;;3.10;0.73;;;;;;;-143.37;100.00;65745.06;5083322;28;20201;-69
2021/10/21 08:49:04;;;;;;;2.33;0.80;;;;;;;-143.37;100.00;65745.06;5071957;28;20286;-69
2021/10/21 08:51:32;;;;;;;1.98;0.80;;;;;;;-143.37;100.00;65745.06;5070978;28;20797;-71
2021/10/21 08:53:59;;;;;;;2.42;0.82;;;;;;;-143.37;100.00;65745.06;5072044;28;20284;-70
2021/10/21 08:56:26;;;;;;;1.05;0.55;;;;;;;-143.37;100.00;65745.06;5071929;28;20296;-70
2021/10/21 08:58:56;;;;;;;8.57;0.90;;;;;;;-143.37;100.00;65745.06;5071775;28;20215;-70
2021/10/21 09:01:41;;;;;;;1.55;0.50;;;;;;;-143.37;100.00;65745.06;5069407;28;20312;-71
2021/10/21 09:07:54;;;;;;;5.30;0.73;;;;;;;-143.37;100.00;65745.06;5071953;28;20204;-70
2021/10/21 09:09:31;;;;;;;1.63;0.50;;;;;;;-143.37;100.00;65745.06;5071102;28;20211;-69
2021/10/21 09:12:10;;;;;;;2.38;0.60;;;;;;;-143.37;100.00;65745.06;5071950;28;20256;-70
2021/10/21 09:14:39;;;;;;;3.30;0.65;;;;;;;-143.37;100.00;65745.06;5072367;28;20239;-70
2021/10/21 09:17:07;;;;;;;3.63;0.73;;;;;;;-143.37;100.00;65745.06;5070166;28;20209;-70
2021/10/21 09:19:34;;;;;;;1.88;0.60;;;;;;;-143.37;100.00;65745.06;5070931;28;20228;-70
2021/10/21 09:22:05;;;;;;;1.95;0.60;;;;;;;-143.37;100.00;65745.06;5071463;28;20291;-69
2021/10/21 09:24:40;;;;;;;2.65;0.60;;;;;;;-143.37;100.00;65745.06;5088472;28;20211;-70
2021/10/21 09:27:25;;;;;;;1.20;0.50;;;;;;;-143.37;100.00;65745.06;5091599;28;20737;-70
2021/10/21 09:29:54;;;;;;;2.80;0.30;;;;;;;-143.37;100.00;65745.06;5089890;28;20610;-70
2021/10/21 09:32:29;;;;;;;0.88;0.50;;;;;;;-143.37;100.00;65745.06;5090267;28;20224;-69
2021/10/21 09:35:02;;;;;;;2.60;0.30;;;;;;;-143.37;100.00;65745.06;5092104;28;20298;-69
2021/10/21 09:37:31;;;;;;;1.33;0.32;;;;;;;-143.37;100.00;65745.06;5092102;28;20232;-70
2021/10/21 09:40:00;;;;;;;6.38;1.02;;;;;;;-143.37;100.00;65745.06;5091104;28;20273;-71
2021/10/21 09:42:35;;;;;;;3.10;0.50;;;;;;;-143.37;100.00;65745.06;5092770;28;20234;-71
2021/10/21 09:45:13;;;;;;;4.30;0.45;;;;;;;-143.37;100.00;65745.06;5091951;28;20220;-70
2021/10/21 09:47:43;;;;;;;3.80;0.40;;;;;;;-143.37;100.00;65745.06;5073395;28;20364;-70
2021/10/21 09:50:36;;;;;;;2.35;0.50;;;;;;;-143.37;100.00;65745.06;5071124;28;20647;-71
2021/10/21 09:53:18;;;;;;;1.50;0.50;;;;;;;-143.37;100.00;65745.06;5073858;28;20308;-71
2021/10/21 09:55:49;;;;;;;1.70;0.50;;;;;;;-143.37;100.00;65745.06;5075245;28;20229;-70
2021/10/21 09:58:19;;;;;;;1.63;0.30;;;;;;;-143.37;100.00;65745.06;5075521;28;20236;-69
2021/10/21 10:00:46;;;;;;;3.60;0.50;;;;;;;-143.37;100.00;65745.06;5074269;28;20209;-71
2021/10/21 10:03:21;;;;;;;2.50;0.25;;;;;;;-143.37;100.00;65745.06;5074108;28;20225;-71
2021/10/21 10:05:52;;;;;;;1.48;0.43;;;;;;;-143.37;100.00;65745.06;5073669;28;20224;-70
2021/10/21 10:08:20;;;;;;;1.95;0.40;;;;;;;-143.37;100.00;65745.06;5075154;28;20292;-70
2021/10/21 10:10:49;;;;;;;2.63;0.45;;;;;;;-143.37;100.00;65745.06;5074352;28;20272;-70
2021/10/21 10:13:20;;;;;;;0.35;0.10;;;;;;;-143.37;100.00;65745.06;5057547;28;20290;-71
2021/10/21 10:15:52;;;;;;;2.05;0.50;;;;;;;-143.37;100.00;65745.06;5090493;28;20209;-71
2021/10/21 10:18:22;;;;;;;1.48;0.22;;;;;;;-143.37;100.00;65745.06;5075362;28;20731;-70
2021/10/21 10:21:00;;;;;;;1.13;0.30;;;;;;;-143.37;100.00;65745.06;5076772;28;20224;-72
2021/10/21 10:23:27;;;;;;;0.80;0.35;;;;;;;-143.37;100.00;65745.06;5090697;28;20689;-71
2021/10/21 10:25:55;;;;;;;3.70;0.65;;;;;;;-143.37;100.00;65745.06;5088502;28;20316;-71
2021/10/21 10:28:21;;;;;;;1.80;0.40;;;;;;;-143.37;100.00;65745.06;5100956;28;20375;-71
2021/10/21 10:30:53;;;;;;;4.65;0.63;;;;;;;-143.37;100.00;65745.06;5097660;28;20295;-71
2021/10/21 10:33:32;;;;;;;1.88;0.55;;;;;;;-143.37;100.00;65745.06;5095097;28;20244;-70
2021/10/21 10:36:21;;;;;;;2.05;0.40;;;;;;;-143.37;100.00;65745.06;5094589;28;20239;-71
2021/10/21 10:38:48;;;;;;;1.63;0.52;;;;;;;-143.37;100.00;65745.06;5094461;28;20739;-70
2021/10/21 10:41:54;;;;;;;0.60;0.40;;;;;;;-143.37;100.00;65745.06;5092011;28;20254;-70
2021/10/21 10:44:36;;;;;;;1.40;0.40;;;;;;;-143.37;100.00;65745.06;5092573;28;20201;-72
2021/10/21 10:47:04;;;;;;;1.85;0.22;;;;;;;-143.37;100.00;65745.06;5081254;28;20236;-70
2021/10/21 10:49:37;;;;;;;1.05;0.25;;;;;;;-143.37;100.00;65745.06;5073296;28;20217;-71
2021/10/21 10:52:05;;;;;;;1.97;0.30;;;;;;;-143.37;100.00;65745.06;5073579;28;20221;-72
2021/10/21 10:54:47;;;;;;;0.20;0.10;;;;;;;-143.37;100.00;65745.06;5073996;28;20255;-71
2021/10/21 10:57:24;;;;;;;1.83;0.40;;;;;;;-143.37;100.00;65745.06;5074155;28;20270;-70
2021/10/21 10:59:57;;;;;;;1.23;0.33;;;;;;;-143.37;100.00;65745.06;5073084;28;20274;-70
2021/10/21 11:02:24;;;;;;;0.77;0.20;;;;;;;-143.37;100.00;65745.06;5073741;28;20268;-70
2021/10/21 11:04:54;;;;;;;1.20;0.20;;;;;;;-143.37;100.00;65745.06;5073767;28;20220;-70
2021/10/21 11:07:39;;;;;;;1.13;0.20;;;;;;;-143.37;100.00;65745.06;5072069;28;20521;-70
2021/10/21 11:10:16;;;;;;;2.07;0.57;;;;;;;-143.37;100.00;65745.06;5073416;28;20251;-70
2021/10/21 11:12:45;;;;;;;4.97;0.77;;;;;;;-143.37;100.00;65745.06;5073999;28;20709;-70
2021/10/21 11:15:33;;;;;;;1.03;0.30;;;;;;;-143.37;100.00;65745.06;5073137;28;20229;-71
2021/10/21 11:18:01;;;;;;;1.27;0.60;;;;;;;-143.37;100.00;65745.06;5072986;28;20209;-70
2021/10/21 11:20:30;;;;;;;3.40;0.20;;;;;;;-143.37;100.00;65745.06;5072936;28;20269;-70
2021/10/21 11:22:59;;;;;;;1.43;0.30;;;;;;;-143.37;100.00;65745.06;5073471;28;20269;-70
2021/10/21 11:25:28;;;;;;;0.30;0.13;;;;;;;-143.37;100.00;65745.06;5082712;28;20220;-71
2021/10/21 11:27:55;;;;;;;2.00;0.30;;;;;;;-143.37;100.00;65745.06;5092458;28;20638;-71
2021/10/21 11:30:31;;;;;;;0.67;0.10;;;;;;;-143.37;100.00;65745.06;5092755;28;20574;-70
2021/10/21 11:33:10;;;;;;;2.20;0.33;;;;;;;-143.37;100.00;65745.06;5093207;28;20277;-70
2021/10/21 11:35:39;;;;;;;1.60;0.40;;;;;;;-143.37;100.00;65745.06;5093538;28;20239;-71
2021/10/21 11:38:13;;;;;;;3.10;0.17;;;;;;;-143.37;100.00;65745.06;5092522;28;20204;-71
2021/10/21 11:40:52;;;;;;;1.77;0.30;;;;;;;-143.37;100.00;65745.06;5093057;28;20205;-71
2021/10/21 11:43:27;;;;;;;0.93;0.20;;;;;;;-143.37;100.00;65745.06;5092346;28;20267;-70
2021/10/21 11:46:03;;;;;;;0.20;0.10;;;;;;;-143.37;100.00;65745.06;5090750;28;20247;-70
2021/10/21 11:48:35;;;;;;;0.40;0.20;;;;;;;-143.37;100.00;65745.06;5073446;28;20208;-71
2021/10/21 11:51:05;;;;;;;0.60;0.20;;;;;;;-143.37;100.00;65745.06;5071493;28;20662;-70